createdAt,value
2023-03-26T00:00:02.530Z,0
2023-03-26T00:15:03.146Z,0
2023-03-26T00:30:02.413Z,0
2023-03-26T00:45:02.824Z,0
2023-03-26T01:00:03.397Z,0
2023-03-26T01:15:02.715Z,0
2023-03-26T01:30:03.214Z,0
2023-03-26T01:45:02.617Z,0
2023-03-26T02:00:03.212Z,0
2023-03-26T02:15:02.455Z,0
2023-03-26T02:30:02.894Z,0
2023-03-26T02:45:02.331Z,0
2023-03-26T03:00:02.784Z,0
2023-03-26T03:15:03.251Z,0
2023-03-26T03:30:02.671Z,0
2023-03-26T03:45:03.264Z,0
2023-03-26T04:00:03.509Z,0
2023-03-26T04:30:02.448Z,0
2023-03-26T04:45:02.866Z,0
2023-03-26T05:00:02.333Z,0
2023-03-26T05:15:02.758Z,0
2023-03-26T05:30:03.259Z,0
2023-03-26T05:45:02.597Z,6
2023-03-26T06:00:03.248Z,19
2023-03-26T06:15:02.533Z,23
2023-03-26T06:30:02.980Z,24
2023-03-26T06:45:02.399Z,37
2023-03-26T07:00:02.815Z,34
2023-03-26T07:15:03.301Z,35
2023-03-26T07:30:02.724Z,39
2023-03-26T07:45:03.294Z,71
2023-03-26T08:00:02.578Z,116
2023-03-26T08:15:03.041Z,71
2023-03-26T08:30:02.451Z,82
2023-03-26T08:45:02.904Z,184
2023-03-26T09:00:02.946Z,296
2023-03-26T09:15:02.753Z,242
2023-03-26T09:30:02.301Z,181
2023-03-26T09:45:02.665Z,143
2023-03-26T10:00:03.325Z,135
2023-03-26T10:15:02.539Z,204
2023-03-26T10:30:02.951Z,135
2023-03-26T10:45:02.394Z,85
2023-03-26T11:00:02.838Z,121
2023-03-26T11:15:02.327Z,141
2023-03-26T11:30:02.688Z,186
2023-03-26T11:45:03.340Z,239
2023-03-26T12:00:02.577Z,237
2023-03-26T12:15:03.008Z,178
2023-03-26T12:30:02.469Z,95
2023-03-26T12:45:02.861Z,161
2023-03-26T13:00:02.431Z,181
2023-03-26T13:15:02.731Z,157
2023-03-26T13:30:03.364Z,118
2023-03-26T13:45:04.682Z,101
2023-03-26T14:00:02.096Z,108
2023-03-26T14:15:02.498Z,101
2023-03-26T14:30:02.950Z,113
2023-03-26T14:45:02.363Z,166
2023-03-26T15:00:02.814Z,114
2023-03-26T15:15:03.370Z,90
2023-03-26T15:30:02.683Z,92
2023-03-26T15:45:03.115Z,72
2023-03-26T16:00:02.574Z,64
2023-03-26T16:15:03.021Z,66
2023-03-26T16:30:02.470Z,37
2023-03-26T16:45:02.892Z,28
2023-03-26T17:00:06.616Z,29
2023-03-26T17:15:02.744Z,34
2023-03-26T17:30:02.398Z,19
2023-03-26T17:45:02.633Z,3
2023-03-26T18:00:03.073Z,0
2023-03-26T18:15:02.494Z,0
2023-03-26T18:30:03.389Z,0
2023-03-26T19:00:02.833Z,0
2023-03-26T19:15:02.400Z,0
2023-03-26T19:30:02.699Z,0
2023-03-26T19:45:03.154Z,0
2023-03-26T20:00:02.559Z,0
2023-03-26T20:15:03.016Z,0
2023-03-26T20:30:02.468Z,0
2023-03-26T20:45:02.909Z,0
2023-03-26T21:00:02.433Z,0
2023-03-26T21:15:09.886Z,0
2023-03-26T21:30:03.436Z,0
2023-03-26T21:45:02.652Z,0
2023-03-26T22:00:03.083Z,0
2023-03-26T22:30:02.982Z,0
2023-03-26T22:45:02.448Z,0
2023-03-26T23:00:02.834Z,0
2023-03-26T23:15:03.468Z,0
2023-03-26T23:30:02.724Z,0
2023-03-26T23:45:03.176Z,0
